This is the latest recevied weather packets stored in our database for station/object PP5ABU-13. If no packets are shown the sender has not sent any weather packets the latest 10 day(s).
| Time | Temp. | Humidity | Pressure | Rain* | Wind** | Luminosity | Snow |
|---|---|---|---|---|---|---|---|
| 1777414505 | 19.44° C | 73% | 1015.3 hPa | 0 mm | - | - | - |
| 1777413604 | 19.44° C | 73% | 1015.3 hPa | 0 mm | - | - | - |
| 1777412705 | 19.44° C | 72% | 1014.8 hPa | 0 mm | - | - | - |
| 1777411804 | 19.44° C | 72% | 1014.8 hPa | 0 mm | - | - | - |
| 1777410904 | 19.44° C | 71% | 1014.7 hPa | 0 mm | - | - | - |
| 1777410004 | 19.44° C | 71% | 1014.7 hPa | 0 mm | - | - | - |
| 1777409105 | 20° C | 70% | 1014.4 hPa | 0 mm | - | - | - |
| 1777408204 | 20.56° C | 69% | 1014.5 hPa | 0 mm | - | - | - |
| 1777407304 | 21.67° C | 65% | 1014.7 hPa | 0 mm | - | - | - |
| 1777406404 | 23.33° C | 58% | 1014.5 hPa | 0 mm | - | - | - |
| 1777405504 | 23.33° C | 59% | 1014.7 hPa | 0 mm | - | - | - |
| 1777404604 | 23.89° C | 54% | 1014.7 hPa | 0 mm | - | - | - |
| 1777403704 | 25° C | 52% | 1014.9 hPa | 0 mm | - | - | - |
| 1777402804 | 25.56° C | 51% | 1014.8 hPa | 0 mm | - | - | - |
| 1777401904 | 26.67° C | 50% | 1014.7 hPa | 0 mm | - | - | - |
| 1777401004 | 25.56° C | 50% | 1014.7 hPa | 0 mm | - | - | - |
| 1777400104 | 24.44° C | 51% | 1014.7 hPa | 0 mm | - | - | - |
| 1777399204 | 23.89° C | 53% | 1014.8 hPa | 0 mm | - | - | - |
| 1777398304 | 23.89° C | 52% | 1014.9 hPa | 0 mm | - | - | - |
| 1777397404 | 24.44° C | 54% | 1014.8 hPa | 0 mm | - | - | - |
| 1777396505 | 23.89° C | 51% | 1015.1 hPa | 0 mm | - | - | - |
| 1777395604 | 23.89° C | 50% | 1015.5 hPa | 0 mm | - | - | - |
| 1777394704 | 23.89° C | 51% | 1015.7 hPa | 0 mm | - | - | - |
| 1777393804 | 25° C | 47% | 1015.7 hPa | 0 mm | - | - | - |
| 1777392904 | 24.44° C | 50% | 1016 hPa | 0 mm | - | - | - |
* Rain latest hour (hover to see other rain measurements)
** Current wind speed in m/s (hover to see current wind gust speed)